Terminal Aerodrome Forecast
Issued by NWS

Home | Current Version | Previous Version | Text Only | Print | Product List | Glossary On
Versions: 1 2 3 4 5 6 7 8 9 10 11 12 13 14 15 16 17 18 19
000
FTUS41 KCAR 300548
TAFHUL
TAF
KHUL 300548Z 3006/3106 00000KT P6SM SKC
     FM301200 15006KT P6SM SCT250
     FM301800 17009KT P6SM BKN250
     FM310000 17005KT 3SM -SHRA OVC060
     FM310200 18004KT 3SM BR SCT007 OVC070
     FM310400 18005KT 2SM BR SCT005 BKN010=

USA.gov is the U.S. government's official web portal to all federal, state and local government web resources and services.